createdAt,value
2019-01-21T00:01:40.828Z,11.90
2019-01-21T00:04:07.876Z,8.83
2019-01-21T00:06:34.929Z,10.90
2019-01-21T00:09:01.973Z,10.33
2019-01-21T00:11:29.021Z,7.37
2019-01-21T00:13:56.076Z,10.47
2019-01-21T00:16:23.119Z,8.57
2019-01-21T00:18:50.171Z,7.83
2019-01-21T00:21:17.222Z,9.97
2019-01-21T00:23:44.264Z,10.53
2019-01-21T00:26:11.312Z,5.17
2019-01-21T00:28:38.307Z,5.33
2019-01-21T00:31:05.307Z,9.13
2019-01-21T00:33:32.361Z,10.03
2019-01-21T00:35:59.403Z,10.03
2019-01-21T00:38:26.453Z,7.80
2019-01-21T00:40:53.603Z,4.90
2019-01-21T00:43:20.657Z,8.00
2019-01-21T00:45:47.700Z,9.40
2019-01-21T00:48:15.116Z,9.77
2019-01-21T00:50:42.049Z,10.03
2019-01-21T00:53:09.051Z,6.87
2019-01-21T00:55:36.722Z,4.27
2019-01-21T00:58:03.762Z,4.83
2019-01-21T01:00:30.809Z,7.20
2019-01-21T01:02:57.866Z,6.47
2019-01-21T01:05:24.858Z,9.83
2019-01-21T01:07:51.858Z,6.73
2019-01-21T01:10:18.902Z,5.97
2019-01-21T01:12:46.468Z,5.07
2019-01-21T01:15:13.509Z,7.00
2019-01-21T01:17:40.559Z,7.80
2019-01-21T01:20:07.614Z,8.40
2019-01-21T01:22:34.658Z,5.27
2019-01-21T01:25:02.222Z,5.87
2019-01-21T01:27:29.265Z,6.90
2019-01-21T01:29:56.316Z,7.90
2019-01-21T01:32:23.367Z,1.93
2019-01-21T01:34:50.409Z,5.00
2019-01-21T01:37:17.767Z,3.67
2019-01-21T01:39:44.826Z,5.17
2019-01-21T01:42:11.863Z,8.37
2019-01-21T01:44:38.912Z,6.13
2019-01-21T01:47:05.964Z,4.17
2019-01-21T01:49:33.424Z,3.43
2019-01-21T01:52:04.202Z,2.33
2019-01-21T01:54:31.205Z,5.83
2019-01-21T01:56:58.255Z,8.83
2019-01-21T01:59:25.300Z,4.90
2019-01-21T02:01:52.287Z,5.93
2019-01-21T02:04:19.243Z,6.30
2019-01-21T02:06:46.341Z,5.03
2019-01-21T02:09:13.396Z,7.93
2019-01-21T02:11:40.387Z,9.10
2019-01-21T02:14:07.389Z,6.80
2019-01-21T02:16:34.447Z,5.90
2019-01-21T02:19:01.481Z,6.90
2019-01-21T02:21:28.535Z,8.47
2019-01-21T02:23:55.579Z,7.60
2019-01-21T02:26:27.849Z,3.47
2019-01-21T02:28:54.902Z,5.57
2019-01-21T02:31:25.887Z,7.33
2019-01-21T02:34:09.683Z,4.40
2019-01-21T02:36:37.758Z,3.77
2019-01-21T02:39:10.742Z,2.77
2019-01-21T02:41:37.791Z,5.93
2019-01-21T02:44:08.630Z,5.90
2019-01-21T02:46:35.684Z,7.63
2019-01-21T02:49:04.566Z,9.40
2019-01-21T02:51:44.423Z,6.23
2019-01-21T02:54:11.578Z,8.10
2019-01-21T02:56:49.366Z,3.27
2019-01-21T02:59:34.137Z,3.40
2019-01-21T03:02:17.971Z,3.10
2019-01-21T03:04:46.997Z,1.73
2019-01-21T03:07:15.037Z,3.90
2019-01-21T03:10:00.858Z,4.03
2019-01-21T03:12:30.333Z,5.97
2019-01-21T03:14:57.381Z,4.67
2019-01-21T03:17:39.279Z,2.27
2019-01-21T03:20:17.897Z,5.00
2019-01-21T03:22:46.790Z,5.37
2019-01-21T03:25:16.708Z,4.17
2019-01-21T03:27:45.496Z,7.13
2019-01-21T03:30:12.567Z,5.30
2019-01-21T03:32:45.542Z,8.50
2019-01-21T03:35:16.473Z,8.33
2019-01-21T03:37:44.543Z,3.93
2019-01-21T03:40:17.639Z,5.27
2019-01-21T03:42:46.635Z,4.43
2019-01-21T03:45:34.465Z,1.93
2019-01-21T03:48:03.459Z,5.00
2019-01-21T03:50:45.355Z,3.23
2019-01-21T03:53:24.179Z,3.33
2019-01-21T03:55:51.330Z,2.80
2019-01-21T03:58:39.273Z,5.33
2019-01-21T04:01:16.258Z,8.60
2019-01-21T04:03:44.328Z,3.47
2019-01-21T04:06:14.340Z,2.27
2019-01-21T04:08:52.195Z,3.67
2019-01-21T04:11:36.906Z,2.93
2019-01-21T04:14:03.960Z,2.17
2019-01-21T04:16:33.874Z,4.20
2019-01-21T04:19:00.969Z,0.60
2019-01-21T04:21:28.071Z,5.03
2019-01-21T04:24:05.001Z,3.47
2019-01-21T04:26:44.795Z,6.40
2019-01-21T04:29:21.777Z,3.53
2019-01-21T04:31:52.722Z,6.33
2019-01-21T04:34:37.691Z,1.63
2019-01-21T04:37:11.907Z,4.60
2019-01-21T04:39:46.348Z,2.97
2019-01-21T04:42:13.474Z,2.67
2019-01-21T04:44:41.444Z,2.83
2019-01-21T04:47:11.975Z,1.33
2019-01-21T04:49:40.763Z,1.93
2019-01-21T04:52:23.479Z,4.47
2019-01-21T04:54:52.687Z,1.63
2019-01-21T04:57:19.738Z,3.77
2019-01-21T04:59:46.780Z,2.33
2019-01-21T05:02:16.489Z,1.07
2019-01-21T05:04:57.461Z,2.80
2019-01-21T05:07:30.347Z,2.87
2019-01-21T05:09:59.378Z,1.00
2019-01-21T05:12:26.490Z,3.20
2019-01-21T05:15:08.387Z,1.03
2019-01-21T05:17:38.147Z,1.00
2019-01-21T05:20:05.203Z,3.30
2019-01-21T05:22:33.220Z,1.30
2019-01-21T05:25:01.201Z,2.13
2019-01-21T05:27:28.348Z,3.00
2019-01-21T05:29:58.363Z,1.37
2019-01-21T05:32:42.103Z,1.07
2019-01-21T05:35:26.975Z,1.37
2019-01-21T05:38:00.303Z,4.47
2019-01-21T05:40:44.013Z,3.97
2019-01-21T05:43:28.867Z,4.87
2019-01-21T05:45:59.707Z,7.83
2019-01-21T05:48:26.856Z,3.10
2019-01-21T05:50:56.623Z,5.87
2019-01-21T05:53:23.721Z,3.93
2019-01-21T05:55:51.586Z,5.83
2019-01-21T05:58:19.452Z,6.30
2019-01-21T06:01:01.457Z,6.20
2019-01-21T06:03:29.323Z,7.47
2019-01-21T06:05:57.201Z,44.57
2019-01-21T06:08:30.308Z,4.90
2019-01-21T06:10:59.276Z,32.53
2019-01-21T06:13:41.988Z,161.53
2019-01-21T06:16:11.902Z,318.73
2019-01-21T06:18:57.213Z,186.87
2019-01-21T06:21:27.107Z,16.53
2019-01-21T06:23:54.659Z,7.97
2019-01-21T06:26:22.521Z,7.47
2019-01-21T06:28:55.509Z,10.10
2019-01-21T06:31:27.442Z,5.20
2019-01-21T06:33:57.704Z,3.70
2019-01-21T06:36:25.666Z,2.10
2019-01-21T06:39:10.437Z,1.53
2019-01-21T06:41:38.449Z,1.27
2019-01-21T06:44:08.681Z,3.50
2019-01-21T06:46:40.589Z,3.90
2019-01-21T06:49:09.580Z,5.43
2019-01-21T06:51:53.320Z,4.67
2019-01-21T06:54:38.289Z,4.47
2019-01-21T06:57:14.951Z,7.07
2019-01-21T07:00:01.372Z,4.20
2019-01-21T07:02:35.090Z,7.30
2019-01-21T07:05:13.096Z,4.00
2019-01-21T07:07:54.843Z,1.93
2019-01-21T07:10:22.429Z,3.40
2019-01-21T07:12:54.395Z,5.93
2019-01-21T07:15:25.442Z,3.73
2019-01-21T07:17:55.559Z,7.13
2019-01-21T07:20:40.424Z,3.53
2019-01-21T07:23:09.320Z,4.27
2019-01-21T07:25:41.386Z,4.37
2019-01-21T07:28:10.169Z,2.33
2019-01-21T07:30:37.226Z,1.70
2019-01-21T07:33:10.211Z,4.37
2019-01-21T07:35:41.162Z,4.50
2019-01-21T07:38:11.164Z,3.97
2019-01-21T07:40:44.048Z,0.63
2019-01-21T07:43:12.122Z,36.97
2019-01-21T07:45:59.960Z,18.47
2019-01-21T07:48:29.874Z,4.60
2019-01-21T07:51:02.862Z,8.80
2019-01-21T07:53:42.812Z,9.53
2019-01-21T07:56:11.807Z,7.13
2019-01-21T07:58:54.727Z,3.33
2019-01-21T08:01:23.458Z,3.83
2019-01-21T08:03:55.378Z,3.57
2019-01-21T08:06:22.431Z,2.70
2019-01-21T08:09:06.173Z,3.80
2019-01-21T08:11:37.107Z,3.83
2019-01-21T08:14:06.361Z,3.87
2019-01-21T08:16:36.425Z,2.57
2019-01-21T08:19:10.283Z,7.40
2019-01-21T08:21:55.206Z,4.97
2019-01-21T08:24:35.976Z,1.90
2019-01-21T08:27:06.814Z,0.97
2019-01-21T08:29:38.369Z,1.97
2019-01-21T08:32:05.363Z,1.63
2019-01-21T08:34:38.608Z,3.10
2019-01-21T08:37:08.519Z,3.33
2019-01-21T08:39:52.474Z,2.13
2019-01-21T08:42:26.382Z,3.00
2019-01-21T08:45:12.160Z,2.87
2019-01-21T08:47:42.077Z,2.80
2019-01-21T08:50:18.649Z,1.33
2019-01-21T08:52:45.702Z,1.63
2019-01-21T08:55:13.923Z,4.33
2019-01-21T08:57:41.125Z,2.73
2019-01-21T09:00:24.865Z,2.20
2019-01-21T09:03:05.947Z,3.47
2019-01-21T09:05:39.042Z,3.27
2019-01-21T09:08:23.046Z,2.57
2019-01-21T09:10:50.441Z,2.37
2019-01-21T09:13:33.631Z,3.37
2019-01-21T09:16:03.415Z,3.50
2019-01-21T09:18:40.369Z,2.30
2019-01-21T09:21:10.580Z,6.00
2019-01-21T09:23:41.620Z,2.43
2019-01-21T09:26:08.771Z,1.47
2019-01-21T09:28:40.032Z,3.33
2019-01-21T09:31:16.803Z,2.93
2019-01-21T09:33:43.961Z,5.17
2019-01-21T09:36:30.764Z,2.47
2019-01-21T09:39:11.633Z,3.43
2019-01-21T09:41:44.516Z,3.63
2019-01-21T09:44:11.569Z,1.00
2019-01-21T09:46:44.347Z,4.57
2019-01-21T09:49:11.094Z,3.63
2019-01-21T09:51:38.138Z,3.30
2019-01-21T09:54:05.185Z,6.57
2019-01-21T09:56:33.975Z,2.63
2019-01-21T09:59:02.821Z,0.67
2019-01-21T10:01:30.228Z,1.23
2019-01-21T10:03:59.113Z,0.67
2019-01-21T10:06:26.120Z,1.80
2019-01-21T10:08:56.228Z,2.07
2019-01-21T10:11:29.585Z,3.10
2019-01-21T10:13:58.727Z,2.53
2019-01-21T10:16:31.565Z,7.17
2019-01-21T10:19:15.051Z,1.63
2019-01-21T10:21:43.991Z,7.60
2019-01-21T10:24:25.780Z,3.10
2019-01-21T10:27:10.750Z,2.77
2019-01-21T10:29:38.622Z,1.23
2019-01-21T10:32:10.585Z,1.00
2019-01-21T10:34:40.496Z,2.73
2019-01-21T10:37:25.316Z,5.87
2019-01-21T10:39:54.358Z,4.50
2019-01-21T10:42:21.612Z,2.47
2019-01-21T10:45:07.711Z,2.00
2019-01-21T10:47:35.704Z,7.77
2019-01-21T10:50:02.725Z,6.20
2019-01-21T10:52:34.899Z,4.03
2019-01-21T10:55:02.915Z,2.33
2019-01-21T10:57:34.214Z,7.23
2019-01-21T11:00:07.102Z,2.07
2019-01-21T11:02:35.066Z,6.40
2019-01-21T11:05:10.104Z,5.10
2019-01-21T11:07:38.079Z,1.97
2019-01-21T11:10:08.044Z,5.97
2019-01-21T11:12:35.146Z,5.53
2019-01-21T11:15:04.032Z,2.10
2019-01-21T11:17:36.000Z,5.23
2019-01-21T11:20:19.026Z,6.87
2019-01-21T11:22:47.099Z,6.40
2019-01-21T11:25:14.347Z,4.30
2019-01-21T11:27:42.563Z,10.13
2019-01-21T11:30:12.457Z,9.77
2019-01-21T11:32:39.485Z,6.57
2019-01-21T11:35:21.383Z,11.13
2019-01-21T11:37:48.440Z,6.07
2019-01-21T11:40:31.566Z,9.60
2019-01-21T11:43:02.398Z,10.90
2019-01-21T11:45:32.314Z,9.67
2019-01-21T11:48:06.115Z,6.77
2019-01-21T11:50:34.193Z,9.03
2019-01-21T11:53:04.309Z,11.93
2019-01-21T11:55:31.363Z,8.50
2019-01-21T11:58:03.233Z,11.53
2019-01-21T12:00:41.026Z,9.20
2019-01-21T12:03:23.470Z,10.37
2019-01-21T12:05:46.386Z,9.07
2019-01-21T12:08:19.471Z,10.30
2019-01-21T12:10:52.054Z,8.80
2019-01-21T12:13:23.506Z,8.03
2019-01-21T12:15:55.465Z,8.63
2019-01-21T12:18:37.373Z,10.00
2019-01-21T12:21:04.425Z,9.83
2019-01-21T12:23:36.648Z,9.50
2019-01-21T12:26:09.464Z,9.97
2019-01-21T12:28:44.451Z,5.33
2019-01-21T12:31:16.463Z,9.73
2019-01-21T12:33:44.536Z,11.27
2019-01-21T12:36:12.507Z,9.40
2019-01-21T12:38:39.582Z,7.97
2019-01-21T12:41:21.652Z,10.53
2019-01-21T12:44:03.553Z,9.60
2019-01-21T12:46:34.501Z,11.97
2019-01-21T12:49:03.496Z,9.93
2019-01-21T12:51:30.754Z,12.30
2019-01-21T12:54:01.701Z,9.90
2019-01-21T12:56:41.535Z,10.43
2019-01-21T12:59:15.850Z,10.97
2019-01-21T13:01:36.761Z,11.77
2019-01-21T13:04:06.674Z,10.67
2019-01-21T13:06:39.554Z,11.10
2019-01-21T13:09:07.627Z,9.63
2019-01-21T13:11:35.498Z,9.40
2019-01-21T13:14:06.434Z,9.77
2019-01-21T13:16:33.412Z,10.57
2019-01-21T13:19:03.296Z,10.00
2019-01-21T13:21:34.866Z,10.67
2019-01-21T13:24:02.987Z,9.50
2019-01-21T13:26:44.921Z,11.30
2019-01-21T13:29:22.928Z,6.33
2019-01-21T13:31:53.715Z,11.73
2019-01-21T13:34:22.758Z,11.43
2019-01-21T13:37:05.634Z,9.87
2019-01-21T13:39:34.879Z,5.87
2019-01-21T13:42:01.927Z,12.33
2019-01-21T13:44:30.921Z,8.90
2019-01-21T13:47:03.907Z,8.80
2019-01-21T13:49:33.763Z,7.57
2019-01-21T13:52:06.813Z,12.10
2019-01-21T13:54:52.706Z,10.27
2019-01-21T13:57:24.001Z,8.93
2019-01-21T14:00:08.868Z,8.50
2019-01-21T14:02:35.967Z,9.00
2019-01-21T14:05:06.706Z,8.73
2019-01-21T14:07:50.658Z,10.30
2019-01-21T14:10:20.611Z,4.37
2019-01-21T14:12:52.742Z,10.33
2019-01-21T14:15:35.468Z,13.20
2019-01-21T14:18:20.314Z,10.90
2019-01-21T14:20:48.500Z,17.00
2019-01-21T14:23:18.513Z,14.93
2019-01-21T14:25:52.118Z,12.90
2019-01-21T14:28:34.935Z,14.00
2019-01-21T14:31:04.857Z,13.07
2019-01-21T14:33:33.633Z,12.53
2019-01-21T14:36:04.469Z,14.50
2019-01-21T14:38:46.271Z,10.00
2019-01-21T14:41:17.414Z,11.40
2019-01-21T14:43:45.379Z,12.40
2019-01-21T14:46:27.278Z,12.53
2019-01-21T14:48:56.177Z,12.23
2019-01-21T14:51:29.154Z,10.07
2019-01-21T14:54:00.013Z,12.80
2019-01-21T14:56:41.891Z,12.03
2019-01-21T14:59:13.080Z,12.60
2019-01-21T15:01:42.642Z,12.53
2019-01-21T15:04:10.547Z,11.63
2019-01-21T15:06:38.842Z,11.23
2019-01-21T15:09:24.513Z,13.87
2019-01-21T15:12:06.491Z,12.67
2019-01-21T15:14:39.537Z,13.17
2019-01-21T15:17:24.329Z,12.37
2019-01-21T15:19:51.479Z,11.97
2019-01-21T15:22:18.737Z,14.73
2019-01-21T15:24:49.967Z,12.77
2019-01-21T15:27:17.140Z,15.57
2019-01-21T15:29:44.302Z,12.63
2019-01-21T15:32:17.441Z,15.47
2019-01-21T15:34:45.709Z,14.57
2019-01-21T15:37:12.974Z,12.67
2019-01-21T15:39:50.296Z,15.33
2019-01-21T15:42:19.390Z,15.53
2019-01-21T15:45:02.552Z,16.23
2019-01-21T15:47:30.488Z,13.20
2019-01-21T15:50:00.406Z,13.00
2019-01-21T15:52:27.448Z,13.07
2019-01-21T15:55:01.264Z,16.63
2019-01-21T15:57:43.922Z,13.43
2019-01-21T16:00:16.965Z,16.07
2019-01-21T16:02:45.041Z,16.63
2019-01-21T16:05:12.081Z,13.23
2019-01-21T16:07:39.129Z,14.10
2019-01-21T16:10:21.030Z,15.50
2019-01-21T16:12:50.122Z,15.33
2019-01-21T16:15:32.020Z,14.70
2019-01-21T16:18:02.963Z,51.17
2019-01-21T16:20:30.008Z,13.13
2019-01-21T16:22:59.879Z,15.23
2019-01-21T16:25:26.971Z,14.07
2019-01-21T16:28:08.869Z,14.50
2019-01-21T16:30:38.688Z,14.47
2019-01-21T16:33:05.684Z,14.23
2019-01-21T16:35:32.779Z,13.13
2019-01-21T16:37:59.834Z,13.33
2019-01-21T16:40:29.847Z,16.33
2019-01-21T16:42:56.932Z,13.10
2019-01-21T16:45:24.053Z,15.33
2019-01-21T16:47:51.097Z,12.83
2019-01-21T16:50:18.144Z,17.70
2019-01-21T16:52:45.199Z,16.10
2019-01-21T16:55:12.241Z,18.07
2019-01-21T16:57:39.288Z,17.73
2019-01-21T17:00:07.829Z,14.13
2019-01-21T17:02:34.975Z,13.47
2019-01-21T17:05:01.972Z,17.10
2019-01-21T17:07:29.027Z,14.53
2019-01-21T17:09:56.079Z,14.50
2019-01-21T17:12:23.221Z,16.43
2019-01-21T17:14:57.255Z,16.30
2019-01-21T17:17:17.325Z,16.10
2019-01-21T17:19:44.278Z,13.47
2019-01-21T17:22:12.139Z,13.70
2019-01-21T17:24:39.187Z,14.60
2019-01-21T17:27:06.328Z,19.43
2019-01-21T17:29:35.074Z,13.47
2019-01-21T17:32:02.119Z,13.60
2019-01-21T17:34:29.112Z,13.97
2019-01-21T17:36:57.697Z,13.07
2019-01-21T17:39:24.750Z,12.37
2019-01-21T17:41:52.306Z,16.27
2019-01-21T17:44:19.437Z,16.57
2019-01-21T17:46:46.514Z,16.73
2019-01-21T17:49:13.661Z,25.63
2019-01-21T17:51:40.729Z,31.53
2019-01-21T17:54:07.755Z,35.73
2019-01-21T17:56:34.748Z,48.97
2019-01-21T17:59:01.851Z,22.13
2019-01-21T18:01:28.901Z,38.73
2019-01-21T18:03:55.971Z,16.60
2019-01-21T18:06:22.963Z,15.10
2019-01-21T18:08:49.894Z,14.10
2019-01-21T18:11:16.992Z,14.63
2019-01-21T18:13:44.144Z,12.10
2019-01-21T18:16:11.192Z,13.03
2019-01-21T18:18:38.243Z,15.13
2019-01-21T18:21:05.289Z,10.60
2019-01-21T18:23:32.353Z,13.10
2019-01-21T18:25:59.282Z,12.77
2019-01-21T18:28:26.232Z,13.57
2019-01-21T18:30:53.276Z,30.63
2019-01-21T18:33:20.325Z,16.73
2019-01-21T18:35:47.327Z,15.40
2019-01-21T18:38:14.422Z,30.33
2019-01-21T18:40:41.471Z,33.57
2019-01-21T18:43:08.830Z,11.50
2019-01-21T18:45:35.876Z,17.67
2019-01-21T18:48:02.935Z,12.03
2019-01-21T18:50:29.978Z,11.87
2019-01-21T18:52:57.021Z,15.57
2019-01-21T18:55:24.069Z,14.23
2019-01-21T18:57:55.850Z,11.80
2019-01-21T19:00:18.119Z,13.13
2019-01-21T19:02:45.120Z,14.50
2019-01-21T19:05:12.160Z,12.20
2019-01-21T19:07:39.209Z,10.40
2019-01-21T19:10:06.263Z,12.73
2019-01-21T19:12:33.305Z,12.90
2019-01-21T19:15:01.455Z,15.00
2019-01-21T19:17:30.792Z,12.70
2019-01-21T19:19:57.989Z,13.50
2019-01-21T19:22:24.983Z,10.13
2019-01-21T19:24:53.105Z,10.60
2019-01-21T19:27:20.102Z,13.57
2019-01-21T19:29:47.158Z,11.20
2019-01-21T19:32:14.404Z,10.50
2019-01-21T19:34:41.459Z,18.13
2019-01-21T19:37:13.175Z,16.77
2019-01-21T19:39:40.260Z,12.67
2019-01-21T19:42:07.312Z,12.57
2019-01-21T19:44:34.367Z,10.97
2019-01-21T19:47:01.516Z,14.17
2019-01-21T19:49:29.079Z,14.33
2019-01-21T19:52:00.465Z,12.03
2019-01-21T19:54:25.538Z,10.97
2019-01-21T19:56:52.673Z,6.80
2019-01-21T19:59:19.727Z,16.80
2019-01-21T20:01:46.778Z,10.50
2019-01-21T20:04:13.721Z,4.30
2019-01-21T20:06:40.925Z,6.27
2019-01-21T20:09:08.024Z,8.73
2019-01-21T20:11:35.141Z,8.10
2019-01-21T20:14:02.588Z,7.67
2019-01-21T20:16:30.509Z,10.43
2019-01-21T20:18:57.505Z,12.00
2019-01-21T20:21:25.117Z,10.80
2019-01-21T20:23:52.168Z,11.83
2019-01-21T20:26:19.318Z,8.57
2019-01-21T20:28:46.360Z,9.40
2019-01-21T20:31:14.023Z,10.07
2019-01-21T20:33:41.080Z,6.73
2019-01-21T20:36:08.329Z,13.13
2019-01-21T20:38:36.040Z,12.17
2019-01-21T20:41:03.041Z,13.20
2019-01-21T20:43:30.035Z,9.77
2019-01-21T20:45:57.027Z,8.60
2019-01-21T20:48:24.134Z,8.50
2019-01-21T20:50:51.326Z,9.00
2019-01-21T20:53:18.430Z,6.80
2019-01-21T20:55:45.481Z,9.80
2019-01-21T20:58:12.537Z,4.17
2019-01-21T21:00:39.576Z,9.83
2019-01-21T21:03:06.550Z,9.00
2019-01-21T21:05:33.569Z,10.20
2019-01-21T21:08:01.233Z,6.97
2019-01-21T21:10:28.237Z,9.77
2019-01-21T21:12:55.227Z,1.17
2019-01-21T21:15:22.282Z,1.13
2019-01-21T21:17:49.325Z,3.07
2019-01-21T21:20:16.475Z,4.20
2019-01-21T21:22:43.526Z,6.23
2019-01-21T21:25:11.086Z,6.87
2019-01-21T21:27:38.133Z,3.80
2019-01-21T21:30:05.085Z,4.57
2019-01-21T21:32:32.080Z,7.70
2019-01-21T21:34:59.073Z,6.70
2019-01-21T21:37:26.077Z,6.77
2019-01-21T21:39:54.400Z,10.73
2019-01-21T21:42:20.227Z,10.17
2019-01-21T21:44:47.270Z,7.63
2019-01-21T21:47:15.141Z,5.53
2019-01-21T21:49:42.183Z,10.90
2019-01-21T21:52:09.646Z,8.30
2019-01-21T21:54:36.698Z,7.37
2019-01-21T21:57:03.742Z,7.40
2019-01-21T21:59:30.786Z,6.80
2019-01-21T22:01:57.733Z,8.87
2019-01-21T22:04:24.685Z,12.97
2019-01-21T22:06:51.727Z,14.23
2019-01-21T22:09:18.775Z,8.97
2019-01-21T22:11:45.833Z,9.63
2019-01-21T22:14:12.873Z,7.63
2019-01-21T22:16:40.131Z,12.20
2019-01-21T22:19:07.175Z,10.67
2019-01-21T22:21:34.223Z,11.63
2019-01-21T22:24:01.584Z,8.83
2019-01-21T22:26:28.628Z,6.90
2019-01-21T22:28:55.676Z,7.47
2019-01-21T22:31:23.037Z,9.43
2019-01-21T22:33:50.203Z,7.50
2019-01-21T22:36:17.232Z,7.73
2019-01-21T22:38:44.795Z,9.00
2019-01-21T22:41:11.947Z,8.07
2019-01-21T22:43:39.406Z,7.33
2019-01-21T22:46:06.863Z,7.77
2019-01-21T22:48:33.907Z,9.13
2019-01-21T22:51:00.958Z,7.27
2019-01-21T22:53:28.414Z,7.63
2019-01-21T22:55:55.467Z,11.70
2019-01-21T22:58:22.525Z,7.30
2019-01-21T23:00:50.582Z,11.87
2019-01-21T23:03:17.631Z,8.57
2019-01-21T23:05:44.709Z,9.37
2019-01-21T23:08:12.143Z,8.40
2019-01-21T23:10:39.186Z,15.53
2019-01-21T23:13:06.184Z,13.13
2019-01-21T23:15:33.300Z,9.47
2019-01-21T23:18:04.186Z,10.33
2019-01-21T23:20:27.483Z,10.27
2019-01-21T23:22:54.841Z,10.80
2019-01-21T23:25:21.995Z,7.80
2019-01-21T23:27:48.897Z,10.53
2019-01-21T23:30:16.909Z,7.37
2019-01-21T23:32:43.960Z,5.17
2019-01-21T23:35:11.010Z,11.37
2019-01-21T23:37:39.171Z,9.67
2019-01-21T23:40:06.336Z,10.63
2019-01-21T23:42:33.382Z,7.83
2019-01-21T23:45:04.938Z,7.93
2019-01-21T23:47:31.980Z,7.20
2019-01-21T23:49:59.026Z,11.80
2019-01-21T23:52:26.023Z,9.23
2019-01-21T23:54:53.127Z,10.17
2019-01-21T23:57:23.762Z,16.67
2019-01-21T23:59:50.805Z,10.80
